Baugh, Oklahoma
Current Conditions -  °F | °C
As of 7:35 AM on Sunday 21 Dec 2014 (Local Time) from KOWP Reporting Station
Overcast Overcast  
Wind Chill:   Ceiling: 600
Heat Index:   Visibility: 7mi
Dew Point:   Wind: 8mph
Humidity: 90%   Direction: 160°SSE
Pressure: 30.07"   Gusts: NA
Location:  36.248°N, 96.4789°W
Report Text: KOWP 211335Z AUTO 16007KT 7SM OVC006 07/06 A3007 RMK AO2 T00730058
Loading
Personal Weather Stations






























Interactive Weather Map New forecast layout! Learn more

10-Day Weather Forecast

Advertisements
Track Severe Weather on mobile